createdAt,value
2018-04-12T00:00:43.086Z,101378.84
2018-04-12T00:03:10.638Z,101373.90
2018-04-12T00:05:38.111Z,101376.66
2018-04-12T00:08:05.591Z,101369.00
2018-04-12T00:10:33.052Z,101358.95
2018-04-12T00:13:00.801Z,101351.70
2018-04-12T00:15:28.247Z,101347.31
2018-04-12T00:17:55.740Z,101351.50
2018-04-12T00:20:23.233Z,101353.59
2018-04-12T00:22:50.730Z,101349.33
2018-04-12T00:25:18.175Z,101350.92
2018-04-12T00:27:45.643Z,101351.80
2018-04-12T00:30:14.127Z,101340.20
2018-04-12T00:32:41.577Z,101343.41
2018-04-12T00:35:09.051Z,101340.32
2018-04-12T00:37:36.525Z,101329.86
2018-04-12T00:40:04.969Z,101329.52
2018-04-12T00:42:32.418Z,101317.88
2018-04-12T00:44:59.890Z,101325.77
2018-04-12T00:47:27.330Z,101330.62
2018-04-12T00:49:54.799Z,101324.95
2018-04-12T00:52:22.247Z,101322.41
2018-04-12T00:54:49.715Z,101322.45
2018-04-12T00:57:17.634Z,101333.00
2018-04-12T00:59:45.137Z,101332.66
2018-04-12T01:02:12.697Z,101333.61
2018-04-12T01:04:40.199Z,101328.18
2018-04-12T01:07:07.633Z,101327.47
2018-04-12T01:09:35.174Z,101321.11
2018-04-12T01:12:03.547Z,101322.67
2018-04-12T01:14:32.007Z,101320.70
2018-04-12T01:16:59.478Z,101310.82
2018-04-12T01:19:26.919Z,101314.77
2018-04-12T01:21:54.386Z,101307.41
2018-04-12T01:24:21.821Z,101310.89
2018-04-12T01:26:49.288Z,101303.98
2018-04-12T01:29:16.731Z,101297.30
2018-04-12T01:31:44.212Z,101303.12
2018-04-12T01:34:11.664Z,101294.08
2018-04-12T01:36:40.063Z,101301.90
2018-04-12T01:39:07.589Z,101297.44
2018-04-12T01:41:35.075Z,101298.12
2018-04-12T01:44:03.530Z,101296.96
2018-04-12T01:46:30.983Z,101297.68
2018-04-12T01:48:58.454Z,101303.64
2018-04-12T01:51:25.898Z,101297.68
2018-04-12T01:53:53.380Z,101299.38
2018-04-12T01:56:20.814Z,101295.48
2018-04-12T01:58:48.294Z,101288.29
2018-04-12T02:01:15.731Z,101288.98
2018-04-12T02:03:43.218Z,101287.56
2018-04-12T02:06:10.663Z,101282.89
2018-04-12T02:08:38.147Z,101279.38
2018-04-12T02:11:05.599Z,101280.91
2018-04-12T02:13:33.066Z,101280.13
2018-04-12T02:16:00.507Z,101278.36
2018-04-12T02:18:27.980Z,101280.78
2018-04-12T02:20:55.432Z,101280.27
2018-04-12T02:23:22.908Z,101277.63
2018-04-12T02:25:50.427Z,101280.54
2018-04-12T02:28:17.903Z,101280.25
2018-04-12T02:30:45.343Z,101287.17
2018-04-12T02:33:12.819Z,101283.75
2018-04-12T02:35:40.263Z,101281.28
2018-04-12T02:38:07.718Z,101283.50
2018-04-12T02:40:35.186Z,101273.66
2018-04-12T02:43:02.622Z,101275.69
2018-04-12T02:45:30.102Z,101273.15
2018-04-12T02:47:57.551Z,101281.00
2018-04-12T02:50:25.026Z,101272.28
2018-04-12T02:52:52.535Z,101271.68
2018-04-12T02:55:20.011Z,101275.29
2018-04-12T02:57:47.458Z,101270.08
2018-04-12T03:00:14.932Z,101267.98
2018-04-12T03:02:42.376Z,101266.08
2018-04-12T03:05:09.849Z,101271.66
2018-04-12T03:07:37.287Z,101267.29
2018-04-12T03:10:04.818Z,101266.36
2018-04-12T03:12:32.238Z,101274.92
2018-04-12T03:14:59.710Z,101264.05
2018-04-12T03:17:27.196Z,101265.13
2018-04-12T03:19:55.590Z,101268.27
2018-04-12T03:22:23.051Z,101264.45
2018-04-12T03:24:50.503Z,101257.03
2018-04-12T03:27:18.047Z,101254.44
2018-04-12T03:29:45.509Z,101245.34
2018-04-12T03:32:13.059Z,101238.45
2018-04-12T03:34:40.510Z,101240.92
2018-04-12T03:37:07.995Z,101230.67
2018-04-12T03:39:36.415Z,101226.89
2018-04-12T03:42:03.910Z,101226.25
2018-04-12T03:44:31.360Z,101227.23
2018-04-12T03:46:58.924Z,101226.37
2018-04-12T03:49:26.428Z,101222.78
2018-04-12T03:51:53.938Z,101228.06
2018-04-12T03:54:21.374Z,101225.34
2018-04-12T03:56:48.956Z,101229.47
2018-04-12T03:59:16.406Z,101226.81
2018-04-12T04:01:44.195Z,101222.52
2018-04-12T04:04:12.546Z,101226.42
2018-04-12T04:06:39.998Z,101228.49
2018-04-12T04:09:07.488Z,101223.07
2018-04-12T04:11:34.930Z,101216.02
2018-04-12T04:14:02.487Z,101220.09
2018-04-12T04:16:41.795Z,101221.69
2018-04-12T04:19:21.150Z,101219.13
2018-04-12T04:21:48.603Z,101220.61
2018-04-12T04:24:16.090Z,101231.00
2018-04-12T04:26:43.538Z,101229.73
2018-04-12T04:29:11.015Z,101227.14
2018-04-12T04:31:38.467Z,101219.40
2018-04-12T04:34:05.934Z,101218.52
2018-04-12T04:36:33.383Z,101223.36
2018-04-12T04:39:01.830Z,101220.15
2018-04-12T04:41:30.275Z,101217.00
2018-04-12T04:43:57.742Z,101215.05
2018-04-12T04:46:25.185Z,101210.50
2018-04-12T04:48:52.670Z,101207.95
2018-04-12T04:51:20.111Z,101212.78
2018-04-12T04:53:48.479Z,101209.89
2018-04-12T04:56:15.960Z,101209.13
2018-04-12T04:58:43.418Z,101201.93
2018-04-12T05:01:10.907Z,101197.89
2018-04-12T05:03:39.369Z,101187.86
2018-04-12T05:06:06.859Z,101186.24
2018-04-12T05:08:34.306Z,101192.36
2018-04-12T05:11:01.850Z,101184.50
2018-04-12T05:13:29.290Z,101178.30
2018-04-12T05:15:56.767Z,101179.28
2018-04-12T05:18:25.231Z,101167.59
2018-04-12T05:20:52.896Z,101163.97
2018-04-12T05:23:20.348Z,101165.01
2018-04-12T05:25:47.791Z,101166.37
2018-04-12T05:28:15.274Z,101163.41
2018-04-12T05:30:42.720Z,101160.91
2018-04-12T05:33:10.303Z,101164.49
2018-04-12T05:35:37.752Z,101172.91
2018-04-12T05:38:06.206Z,101163.88
2018-04-12T05:40:33.650Z,101156.00
2018-04-12T05:43:01.130Z,101150.84
2018-04-12T05:45:28.591Z,101152.44
2018-04-12T05:47:56.075Z,101150.47
2018-04-12T05:50:23.514Z,101148.81
2018-04-12T05:52:51.061Z,101152.31
2018-04-12T05:55:18.623Z,101153.65
2018-04-12T05:57:46.082Z,101146.37
2018-04-12T06:00:13.556Z,101145.34
2018-04-12T06:02:41.987Z,101145.44
2018-04-12T06:05:09.566Z,101142.69
2018-04-12T06:07:37.007Z,101149.14
2018-04-12T06:10:05.412Z,101148.22
2018-04-12T06:12:32.860Z,101135.61
2018-04-12T06:15:00.343Z,101139.73
2018-04-12T06:17:29.840Z,101134.78
2018-04-12T06:19:57.324Z,101143.52
2018-04-12T06:22:24.781Z,101141.25
2018-04-12T06:24:52.260Z,101147.97
2018-04-12T06:27:19.717Z,101141.09
2018-04-12T06:29:47.204Z,101145.82
2018-04-12T06:32:14.688Z,101152.23
2018-04-12T06:34:42.146Z,101150.84
2018-04-12T06:37:09.635Z,101146.27
2018-04-12T06:39:37.083Z,101144.23
2018-04-12T06:42:05.515Z,101160.05
2018-04-12T06:44:35.006Z,101155.86
2018-04-12T06:47:02.483Z,101155.53
2018-04-12T06:49:29.932Z,101153.38
2018-04-12T06:51:58.435Z,101146.85
2018-04-12T06:54:25.883Z,101138.45
2018-04-12T06:56:54.356Z,101136.22
2018-04-12T06:59:21.803Z,101133.54
2018-04-12T07:01:49.286Z,101141.20
2018-04-12T07:04:16.834Z,101139.13
2018-04-12T07:06:44.398Z,101151.25
2018-04-12T07:09:11.863Z,101134.03
2018-04-12T07:11:39.352Z,101137.41
2018-04-12T07:14:06.822Z,101126.61
2018-04-12T07:16:34.375Z,101130.05
2018-04-12T07:19:01.932Z,101128.39
2018-04-12T07:21:29.445Z,101127.92
2018-04-12T07:23:56.933Z,101131.16
2018-04-12T07:26:24.386Z,101129.99
2018-04-12T07:28:51.866Z,101130.36
2018-04-12T07:31:19.329Z,101132.91
2018-04-12T07:33:46.811Z,101121.58
2018-04-12T07:36:14.334Z,101138.21
2018-04-12T07:38:41.835Z,101135.30
2018-04-12T07:41:09.324Z,101126.98
2018-04-12T07:43:36.857Z,101126.47
2018-04-12T07:46:04.366Z,101119.97
2018-04-12T07:48:31.934Z,101113.89
2018-04-12T07:50:59.398Z,101114.44
2018-04-12T07:53:26.890Z,101104.55
2018-04-12T07:55:54.343Z,101107.58
2018-04-12T07:58:21.812Z,101107.87
2018-04-12T08:00:49.278Z,101097.27
2018-04-12T08:03:16.759Z,101097.05
2018-04-12T08:05:44.245Z,101102.52
2018-04-12T08:08:11.727Z,101090.03
2018-04-12T08:10:39.179Z,101093.00
2018-04-12T08:13:06.635Z,101094.41
2018-04-12T08:15:34.115Z,101090.87
2018-04-12T08:18:01.610Z,101099.95
2018-04-12T08:20:29.087Z,101096.98
2018-04-12T08:22:56.525Z,101101.81
2018-04-12T08:25:23.999Z,101094.67
2018-04-12T08:27:51.518Z,101103.98
2018-04-12T08:30:18.983Z,101100.44
2018-04-12T08:32:46.423Z,101104.09
2018-04-12T08:35:13.895Z,101089.66
2018-04-12T08:37:41.367Z,101102.84
2018-04-12T08:40:08.874Z,101099.91
2018-04-12T08:42:36.332Z,101091.63
2018-04-12T08:45:03.900Z,101088.28
2018-04-12T08:47:31.344Z,101085.64
2018-04-12T08:49:58.918Z,101078.31
2018-04-12T08:52:26.389Z,101086.95
2018-04-12T08:54:53.868Z,101085.98
2018-04-12T08:57:21.352Z,101073.55
2018-04-12T08:59:48.802Z,101080.43
2018-04-12T09:02:16.331Z,101084.98
2018-04-12T09:04:43.779Z,101090.16
2018-04-12T09:07:11.259Z,101091.98
2018-04-12T09:09:38.712Z,101095.62
2018-04-12T09:12:06.343Z,101090.38
2018-04-12T09:14:34.847Z,101085.73
2018-04-12T09:17:02.386Z,101091.33
2018-04-12T09:19:30.803Z,101089.31
2018-04-12T09:21:58.291Z,101089.86
2018-04-12T09:24:25.746Z,101089.50
2018-04-12T09:26:53.396Z,101077.66
2018-04-12T09:29:20.852Z,101071.20
2018-04-12T09:31:48.297Z,101074.96
2018-04-12T09:34:15.786Z,101062.47
2018-04-12T09:36:43.265Z,101053.69
2018-04-12T09:39:10.747Z,101058.22
2018-04-12T09:41:38.235Z,101055.57
2018-04-12T09:44:05.731Z,101036.30
2018-04-12T09:46:35.196Z,101042.67
2018-04-12T09:49:04.621Z,101029.77
2018-04-12T09:51:33.031Z,101037.30
2018-04-12T09:54:00.524Z,101025.74
2018-04-12T09:56:27.995Z,101032.69
2018-04-12T09:58:55.495Z,101041.80
2018-04-12T10:01:22.959Z,101037.84
2018-04-12T10:03:50.433Z,101025.77
2018-04-12T10:06:22.829Z,101021.86
2018-04-12T10:08:56.009Z,101041.00
2018-04-12T10:11:23.475Z,101046.55
2018-04-12T10:13:50.969Z,101034.94
2018-04-12T10:16:18.420Z,101031.89
2018-04-12T10:18:45.975Z,101022.09
2018-04-12T10:21:13.516Z,101014.73
2018-04-12T10:23:40.971Z,101021.58
2018-04-12T10:26:08.518Z,101011.28
2018-04-12T10:28:35.992Z,101016.80
2018-04-12T10:31:03.470Z,101005.88
2018-04-12T10:33:30.914Z,101010.94
2018-04-12T10:35:58.391Z,101000.64
2018-04-12T10:38:25.838Z,101007.80
2018-04-12T10:40:53.327Z,100994.72
2018-04-12T10:43:21.833Z,100990.77
2018-04-12T10:45:49.326Z,100986.74
2018-04-12T10:48:16.785Z,100993.78
2018-04-12T10:50:44.289Z,100983.00
2018-04-12T10:53:11.744Z,100977.56
2018-04-12T10:55:39.196Z,100959.80
2018-04-12T10:58:06.682Z,100962.36
2018-04-12T11:00:34.194Z,100952.78
2018-04-12T11:03:01.676Z,100954.98
2018-04-12T11:05:29.143Z,100955.80
2018-04-12T11:07:56.625Z,100956.43
2018-04-12T11:10:24.071Z,100953.75
2018-04-12T11:12:51.554Z,100958.37
2018-04-12T11:15:19.015Z,100943.92
2018-04-12T11:17:46.541Z,100948.44
2018-04-12T11:20:14.003Z,100951.46
2018-04-12T11:22:41.470Z,100952.61
2018-04-12T11:25:08.946Z,100944.28
2018-04-12T11:27:36.395Z,100954.64
2018-04-12T11:30:03.905Z,100939.19
2018-04-12T11:32:31.361Z,100945.61
2018-04-12T11:34:58.854Z,100952.26
2018-04-12T11:37:26.323Z,100933.58
2018-04-12T11:39:53.850Z,100938.72
2018-04-12T11:42:21.303Z,100927.12
2018-04-12T11:44:48.800Z,100922.75
2018-04-12T11:47:16.297Z,100927.78
2018-04-12T11:49:44.755Z,100927.75
2018-04-12T11:52:13.144Z,100931.23
2018-04-12T11:54:40.641Z,100938.40
2018-04-12T11:57:08.091Z,100925.69
2018-04-12T11:59:35.579Z,100917.41
2018-04-12T12:02:03.053Z,100906.16
2018-04-12T12:04:30.575Z,100921.41
2018-04-12T12:06:58.089Z,100911.27
2018-04-12T12:09:25.525Z,100909.82
2018-04-12T12:11:53.035Z,100911.96
2018-04-12T12:14:20.537Z,100905.17
2018-04-12T12:16:48.023Z,100910.48
2018-04-12T12:19:16.519Z,100914.77
2018-04-12T12:21:44.022Z,100893.77
2018-04-12T12:24:11.543Z,100905.95
2018-04-12T12:26:39.069Z,100911.16
2018-04-12T12:29:06.548Z,100913.11
2018-04-12T12:31:34.007Z,100917.87
2018-04-12T12:34:01.491Z,100924.98
2018-04-12T12:36:29.008Z,100919.30
2018-04-12T12:38:56.495Z,100924.01
2018-04-12T12:41:23.938Z,100913.80
2018-04-12T12:43:51.524Z,100918.66
2018-04-12T12:46:18.942Z,100911.86
2018-04-12T12:48:46.415Z,100915.97
2018-04-12T12:51:13.859Z,100917.50
2018-04-12T12:53:41.385Z,100919.20
2018-04-12T12:56:08.893Z,100916.89
2018-04-12T12:58:36.343Z,100912.28
2018-04-12T13:01:03.796Z,100918.59
2018-04-12T13:03:32.239Z,100914.47
2018-04-12T13:05:59.695Z,100928.16
2018-04-12T13:08:27.182Z,100921.14
2018-04-12T13:10:54.659Z,100926.25
2018-04-12T13:13:22.144Z,100914.62
2018-04-12T13:15:49.640Z,100921.50
2018-04-12T13:18:18.050Z,100929.52
2018-04-12T13:20:45.526Z,100928.84
2018-04-12T13:23:12.975Z,100917.71
2018-04-12T13:25:40.450Z,100906.92
2018-04-12T13:28:07.921Z,100909.88
2018-04-12T13:30:35.398Z,100905.50
2018-04-12T13:33:05.380Z,100898.20
2018-04-12T13:35:32.830Z,100891.92
2018-04-12T13:38:00.283Z,100887.03
2018-04-12T13:40:27.786Z,100883.44
2018-04-12T13:42:55.251Z,100880.19
2018-04-12T13:45:23.683Z,100876.20
2018-04-12T13:47:54.881Z,100869.98
2018-04-12T13:50:23.952Z,100874.14
2018-04-12T13:52:51.431Z,100864.77
2018-04-12T13:55:19.698Z,100864.19
2018-04-12T13:57:52.288Z,100868.08
2018-04-12T14:03:29.390Z,100841.84
2018-04-12T14:08:45.500Z,100826.41
2018-04-12T14:11:18.143Z,100822.20
2018-04-12T14:13:45.760Z,100822.78
2018-04-12T14:16:15.140Z,100818.47
2018-04-12T14:18:44.630Z,100829.59
2018-04-12T14:21:15.867Z,100836.34
2018-04-12T14:23:43.354Z,100853.47
2018-04-12T14:26:12.196Z,100858.72
2018-04-12T14:28:39.669Z,100855.87
2018-04-12T14:31:07.123Z,100847.01
2018-04-12T14:33:35.578Z,100866.73
2018-04-12T14:36:03.106Z,100868.22
2018-04-12T14:38:30.550Z,100872.19
2018-04-12T14:40:58.008Z,100847.92
2018-04-12T14:43:25.486Z,100846.64
2018-04-12T14:45:53.866Z,100839.73
2018-04-12T14:48:21.352Z,100847.55
2018-04-12T14:50:49.728Z,100844.33
2018-04-12T14:53:17.224Z,100835.96
2018-04-12T14:55:44.674Z,100835.18
2018-04-12T14:58:12.156Z,100833.92
2018-04-12T15:00:39.631Z,100829.44
2018-04-12T15:03:07.100Z,100826.54
2018-04-12T15:05:34.599Z,100834.42
2018-04-12T15:08:02.068Z,100838.05
2018-04-12T15:10:29.551Z,100834.66
2018-04-12T15:12:57.030Z,100827.17
2018-04-12T15:15:25.422Z,100838.78
2018-04-12T15:17:52.866Z,100851.32
2018-04-12T15:20:20.354Z,100862.00
2018-04-12T15:22:47.808Z,100862.87
2018-04-12T15:25:15.309Z,100852.11
2018-04-12T15:27:44.361Z,100831.14
2018-04-12T15:30:12.957Z,100828.30
2018-04-12T15:32:40.547Z,100824.17
2018-04-12T15:35:08.024Z,100815.12
2018-04-12T15:37:35.523Z,100810.04
2018-04-12T15:40:03.460Z,100816.39
2018-04-12T15:42:30.943Z,100809.81
2018-04-12T15:44:59.379Z,100808.27
2018-04-12T15:47:26.901Z,100808.50
2018-04-12T15:49:54.357Z,100827.99
2018-04-12T15:52:21.854Z,100834.50
2018-04-12T15:54:49.315Z,100834.61
2018-04-12T15:57:16.794Z,100830.27
2018-04-12T15:59:44.247Z,100836.73
2018-04-12T16:02:11.730Z,100826.39
2018-04-12T16:04:39.182Z,100847.41
2018-04-12T16:07:06.672Z,100837.72
2018-04-12T16:09:34.617Z,100829.52
2018-04-12T16:12:02.079Z,100844.98
2018-04-12T16:14:29.565Z,100831.80
2018-04-12T16:16:57.015Z,100831.16
2018-04-12T16:19:25.439Z,100831.96
2018-04-12T16:21:52.905Z,100817.88
2018-04-12T16:24:20.392Z,100831.00
2018-04-12T16:26:48.759Z,100833.13
2018-04-12T16:29:18.240Z,100833.55
2018-04-12T16:31:45.707Z,100816.70
2018-04-12T16:34:13.188Z,100814.55
2018-04-12T16:36:42.906Z,100813.72
2018-04-12T16:39:10.415Z,100824.81
2018-04-12T16:41:37.888Z,100824.13
2018-04-12T16:44:05.399Z,100828.92
2018-04-12T16:46:33.785Z,100836.03
2018-04-12T16:49:03.193Z,100828.20
2018-04-12T16:51:31.587Z,100836.86
2018-04-12T16:53:59.044Z,100835.80
2018-04-12T16:56:27.573Z,100824.13
2018-04-12T16:58:54.995Z,100828.84
2018-04-12T17:01:28.827Z,100824.07
2018-04-12T17:03:56.289Z,100834.58
2018-04-12T17:06:23.780Z,100822.95
2018-04-12T17:08:51.252Z,100834.81
2018-04-12T17:11:18.756Z,100829.09
2018-04-12T17:13:46.214Z,100824.45
2018-04-12T17:16:13.695Z,100824.33
2018-04-12T17:18:41.153Z,100836.73
2018-04-12T17:21:08.662Z,100849.66
2018-04-12T17:23:36.124Z,100850.66
2018-04-12T17:26:03.625Z,100857.84
2018-04-12T17:28:31.079Z,100849.53
2018-04-12T17:30:58.552Z,100841.30
2018-04-12T17:33:27.937Z,100857.30
2018-04-12T17:35:59.100Z,100841.88
2018-04-12T17:38:26.587Z,100839.91
2018-04-12T17:40:54.043Z,100840.47
2018-04-12T17:43:21.522Z,100852.83
2018-04-12T17:45:48.997Z,100865.48
2018-04-12T17:48:16.487Z,100862.36
2018-04-12T17:50:43.952Z,100870.97
2018-04-12T17:53:11.452Z,100859.50
2018-04-12T17:55:38.922Z,100856.98
2018-04-12T17:58:07.395Z,100869.99
2018-04-12T18:00:35.831Z,100873.83
2018-04-12T18:03:03.329Z,100887.20
2018-04-12T18:05:30.801Z,100868.05
2018-04-12T18:07:59.144Z,100865.44
2018-04-12T18:10:26.631Z,100864.78
2018-04-12T18:12:54.123Z,100872.87
2018-04-12T18:15:21.628Z,100867.87
2018-04-12T18:17:49.076Z,100868.13
2018-04-12T18:20:16.551Z,100867.11
2018-04-12T18:22:43.998Z,100862.69
2018-04-12T18:25:14.391Z,100853.35
2018-04-12T18:27:41.838Z,100856.66
2018-04-12T18:30:09.315Z,100871.78
2018-04-12T18:32:36.780Z,100868.09
2018-04-12T18:35:04.297Z,100879.15
2018-04-12T18:37:31.835Z,100882.15
2018-04-12T18:39:59.292Z,100883.77
2018-04-12T18:42:26.774Z,100881.23
2018-04-12T18:44:54.232Z,100887.42
2018-04-12T18:47:21.792Z,100888.34
2018-04-12T18:49:49.290Z,100886.47
2018-04-12T18:52:16.763Z,100896.25
2018-04-12T18:54:44.209Z,100909.23
2018-04-12T18:57:14.633Z,100897.77
2018-04-12T18:59:42.306Z,100901.37
2018-04-12T19:02:10.228Z,100907.91
2018-04-12T19:04:37.787Z,100901.74
2018-04-12T19:07:05.314Z,100896.52
2018-04-12T19:09:32.763Z,100904.04
2018-04-12T19:12:01.428Z,100902.50
2018-04-12T19:14:28.980Z,100890.97
2018-04-12T19:16:57.418Z,100897.24
2018-04-12T19:19:24.866Z,100911.61
2018-04-12T19:21:52.351Z,100908.73
2018-04-12T19:24:19.803Z,100912.88
2018-04-12T19:26:47.328Z,100919.68
2018-04-12T19:29:14.788Z,100912.13
2018-04-12T19:31:42.243Z,100911.95
2018-04-12T19:34:09.715Z,100898.33
2018-04-12T19:36:37.228Z,100904.03
2018-04-12T19:39:04.818Z,100910.97
2018-04-12T19:41:32.290Z,100913.99
2018-04-12T19:43:59.799Z,100910.55
2018-04-12T19:46:27.316Z,100910.63
2018-04-12T19:48:54.996Z,100904.70
2018-04-12T19:51:22.472Z,100899.78
2018-04-12T19:53:49.958Z,100892.95
2018-04-12T19:56:18.272Z,100890.03
2018-04-12T19:58:47.209Z,100890.58
2018-04-12T20:01:14.727Z,100895.55
2018-04-12T20:03:42.220Z,100902.31
2018-04-12T20:06:09.682Z,100897.84
2018-04-12T20:08:38.101Z,100888.63
2018-04-12T20:11:05.618Z,100877.95
2018-04-12T20:13:33.126Z,100888.68
2018-04-12T20:16:01.516Z,100886.86
2018-04-12T20:18:29.075Z,100890.30
2018-04-12T20:20:56.620Z,100891.23
2018-04-12T20:23:24.103Z,100878.61
2018-04-12T20:25:51.590Z,100879.44
2018-04-12T20:28:19.102Z,100872.83
2018-04-12T20:30:46.553Z,100873.95
2018-04-12T20:33:14.030Z,100883.23
2018-04-12T20:35:45.161Z,100889.38
2018-04-12T20:38:12.623Z,100879.67
2018-04-12T20:40:43.583Z,100871.99
2018-04-12T20:43:11.028Z,100872.09
2018-04-12T20:45:38.541Z,100863.34
2018-04-12T20:48:06.015Z,100863.55
2018-04-12T20:50:33.492Z,100863.63
2018-04-12T20:53:00.944Z,100874.64
2018-04-12T20:55:29.277Z,100870.34
2018-04-12T20:57:56.729Z,100864.72
2018-04-12T21:00:24.685Z,100865.86
2018-04-12T21:02:52.298Z,100866.52
2018-04-12T21:05:19.796Z,100866.97
2018-04-12T21:07:47.266Z,100865.34
2018-04-12T21:10:14.727Z,100860.05
2018-04-12T21:12:42.255Z,100855.98
2018-04-12T21:15:09.750Z,100861.92
2018-04-12T21:17:37.355Z,100843.58
2018-04-12T21:20:04.831Z,100846.66
2018-04-12T21:22:32.375Z,100845.09
2018-04-12T21:24:59.896Z,100842.62
2018-04-12T21:27:27.411Z,100830.54
2018-04-12T21:29:56.687Z,100826.23
2018-04-12T21:32:24.468Z,100829.00
2018-04-12T21:34:52.882Z,100830.80
2018-04-12T21:37:20.408Z,100834.61
2018-04-12T21:39:47.859Z,100828.62
2018-04-12T21:42:16.040Z,100828.58
2018-04-12T21:44:43.516Z,100823.87
2018-04-12T21:47:10.958Z,100823.25
2018-04-12T21:49:38.500Z,100824.81
2018-04-12T21:52:05.897Z,100828.19
2018-04-12T21:54:33.377Z,100827.36
2018-04-12T21:57:00.833Z,100836.83
2018-04-12T21:59:30.389Z,100838.78
2018-04-12T22:01:58.910Z,100839.33
2018-04-12T22:04:27.562Z,100841.34
2018-04-12T22:06:55.054Z,100831.42
2018-04-12T22:09:22.562Z,100823.51
2018-04-12T22:11:51.006Z,100831.16
2018-04-12T22:14:18.490Z,100823.06
2018-04-12T22:16:45.960Z,100825.06
2018-04-12T22:19:13.490Z,100818.59
2018-04-12T22:21:41.922Z,100821.27
2018-04-12T22:24:09.503Z,100815.43
2018-04-12T22:26:37.001Z,100815.02
2018-04-12T22:29:04.466Z,100814.96
2018-04-12T22:31:31.948Z,100809.33
2018-04-12T22:34:00.089Z,100817.20
2018-04-12T22:36:27.574Z,100824.13
2018-04-12T22:38:55.021Z,100829.13
2018-04-12T22:41:22.530Z,100822.86
2018-04-12T22:43:50.177Z,100824.69
2018-04-12T22:46:17.654Z,100823.16
2018-04-12T22:48:45.155Z,100827.02
2018-04-12T22:51:13.679Z,100831.98
2018-04-12T22:53:44.806Z,100839.63
2018-04-12T22:56:13.221Z,100834.78
2018-04-12T22:58:46.726Z,100828.60
2018-04-12T23:01:15.244Z,100835.56
2018-04-12T23:03:42.771Z,100843.82
2018-04-12T23:06:13.297Z,100840.58
2018-04-12T23:08:40.793Z,100833.29
2018-04-12T23:11:11.955Z,100829.73
2018-04-12T23:13:39.604Z,100824.58
2018-04-12T23:16:07.091Z,100817.90
2018-04-12T23:18:34.534Z,100826.08
2018-04-12T23:21:02.000Z,100812.80
2018-04-12T23:23:29.583Z,100813.98
2018-04-12T23:25:59.015Z,100810.44
2018-04-12T23:28:26.582Z,100810.62
2018-04-12T23:30:54.057Z,100810.63
2018-04-12T23:33:22.764Z,100807.23
2018-04-12T23:35:50.206Z,100809.42
2018-04-12T23:38:19.098Z,100802.48
2018-04-12T23:40:46.679Z,100801.23
2018-04-12T23:43:14.183Z,100796.37
2018-04-12T23:45:41.666Z,100792.86
2018-04-12T23:48:09.150Z,100797.09
2018-04-12T23:50:37.450Z,100801.67
2018-04-12T23:53:05.832Z,100796.41
2018-04-12T23:55:34.260Z,100798.72
2018-04-12T23:58:01.741Z,100785.47
